sensor_id;sensor_type;location;lat;lon;timestamp;pressure;altitude;pressure_sealevel;temperature;humidity
73628;BME280;61923;51.846;5.856;2023-04-07T00:01:49;101014.22;;;19.08;45.36
73628;BME280;61923;51.846;5.856;2023-04-07T00:04:14;101007.78;;;19.10;45.07
73628;BME280;61923;51.846;5.856;2023-04-07T00:06:39;101010.59;;;19.09;45.12
73628;BME280;61923;51.846;5.856;2023-04-07T00:09:04;101019.75;;;19.13;44.94
73628;BME280;61923;51.846;5.856;2023-04-07T00:11:30;101020.44;;;19.15;44.93
73628;BME280;61923;51.846;5.856;2023-04-07T00:13:55;101022.06;;;19.16;44.71
73628;BME280;61923;51.846;5.856;2023-04-07T00:16:20;101027.16;;;19.18;44.91
73628;BME280;61923;51.846;5.856;2023-04-07T00:18:46;101026.34;;;19.17;44.72
73628;BME280;61923;51.846;5.856;2023-04-07T00:21:11;101025.97;;;19.20;44.74
73628;BME280;61923;51.846;5.856;2023-04-07T00:23:36;101017.09;;;19.21;44.86
73628;BME280;61923;51.846;5.856;2023-04-07T00:26:01;101014.25;;;19.23;44.96
73628;BME280;61923;51.846;5.856;2023-04-07T00:28:27;101022.78;;;19.25;44.85
73628;BME280;61923;51.846;5.856;2023-04-07T00:30:52;101017.34;;;19.26;44.51
73628;BME280;61923;51.846;5.856;2023-04-07T00:33:17;101023.44;;;19.27;44.58
73628;BME280;61923;51.846;5.856;2023-04-07T00:35:42;101021.63;;;19.27;44.48
73628;BME280;61923;51.846;5.856;2023-04-07T00:38:07;101025.72;;;19.30;44.45
73628;BME280;61923;51.846;5.856;2023-04-07T00:40:33;101025.53;;;19.32;44.35
73628;BME280;61923;51.846;5.856;2023-04-07T00:42:58;101028.97;;;19.32;44.34
73628;BME280;61923;51.846;5.856;2023-04-07T00:45:23;101027.16;;;19.33;44.60
73628;BME280;61923;51.846;5.856;2023-04-07T00:47:49;101021.53;;;19.36;44.35
73628;BME280;61923;51.846;5.856;2023-04-07T00:50:14;101026.81;;;19.36;44.08
73628;BME280;61923;51.846;5.856;2023-04-07T00:52:40;101028.25;;;19.38;44.30
73628;BME280;61923;51.846;5.856;2023-04-07T00:55:06;101025.00;;;19.36;44.37
73628;BME280;61923;51.846;5.856;2023-04-07T00:57:31;101033.63;;;19.30;44.38
73628;BME280;61923;51.846;5.856;2023-04-07T00:59:56;101029.16;;;19.30;44.25
73628;BME280;61923;51.846;5.856;2023-04-07T01:02:28;101024.59;;;19.24;44.34
73628;BME280;61923;51.846;5.856;2023-04-07T01:05:08;101019.72;;;19.21;44.69
73628;BME280;61923;51.846;5.856;2023-04-07T01:07:43;101027.41;;;19.23;44.30
73628;BME280;61923;51.846;5.856;2023-04-07T01:10:16;101030.69;;;19.25;44.35
73628;BME280;61923;51.846;5.856;2023-04-07T01:12:48;101033.31;;;19.25;44.61
73628;BME280;61923;51.846;5.856;2023-04-07T01:15:20;101029.06;;;19.24;44.52
73628;BME280;61923;51.846;5.856;2023-04-07T01:17:48;101030.50;;;19.26;44.53
73628;BME280;61923;51.846;5.856;2023-04-07T01:20:20;101036.31;;;19.22;44.33
73628;BME280;61923;51.846;5.856;2023-04-07T01:22:53;101041.41;;;19.23;44.29
73628;BME280;61923;51.846;5.856;2023-04-07T01:30:49;101033.63;;;19.30;44.47
73628;BME280;61923;51.846;5.856;2023-04-07T01:33:17;101042.88;;;19.26;44.56
73628;BME280;61923;51.846;5.856;2023-04-07T01:35:44;101041.22;;;19.25;44.39
73628;BME280;61923;51.846;5.856;2023-04-07T01:38:11;101034.16;;;19.25;44.39
73628;BME280;61923;51.846;5.856;2023-04-07T01:40:37;101037.44;;;19.27;44.18
73628;BME280;61923;51.846;5.856;2023-04-07T01:43:04;101034.78;;;19.27;44.28
73628;BME280;61923;51.846;5.856;2023-04-07T01:45:31;101039.41;;;19.25;44.24
73628;BME280;61923;51.846;5.856;2023-04-07T01:47:59;101035.78;;;19.26;44.35
73628;BME280;61923;51.846;5.856;2023-04-07T01:50:25;101034.78;;;19.27;44.41
73628;BME280;61923;51.846;5.856;2023-04-07T01:52:51;101043.34;;;19.29;44.50
73628;BME280;61923;51.846;5.856;2023-04-07T01:55:17;101041.84;;;19.27;44.08
73628;BME280;61923;51.846;5.856;2023-04-07T01:57:42;101038.88;;;19.30;44.44
73628;BME280;61923;51.846;5.856;2023-04-07T02:00:07;101034.59;;;19.29;44.34
73628;BME280;61923;51.846;5.856;2023-04-07T02:02:34;101049.41;;;19.30;44.19
73628;BME280;61923;51.846;5.856;2023-04-07T02:05:04;101039.69;;;19.30;44.36
73628;BME280;61923;51.846;5.856;2023-04-07T02:07:44;101043.34;;;19.29;44.30
73628;BME280;61923;51.846;5.856;2023-04-07T02:10:12;101045.66;;;19.24;44.40
73628;BME280;61923;51.846;5.856;2023-04-07T02:12:39;101047.75;;;19.29;44.01
73628;BME280;61923;51.846;5.856;2023-04-07T02:15:05;101043.69;;;19.26;44.28
73628;BME280;61923;51.846;5.856;2023-04-07T02:17:35;101053.41;;;19.26;44.08
73628;BME280;61923;51.846;5.856;2023-04-07T02:20:02;101045.66;;;19.24;44.07
73628;BME280;61923;51.846;5.856;2023-04-07T02:22:28;101043.03;;;19.24;44.25
73628;BME280;61923;51.846;5.856;2023-04-07T02:24:54;101047.31;;;19.25;43.92
73628;BME280;61923;51.846;5.856;2023-04-07T02:27:20;101042.69;;;19.27;44.35
73628;BME280;61923;51.846;5.856;2023-04-07T02:29:45;101062.28;;;19.25;43.89
73628;BME280;61923;51.846;5.856;2023-04-07T02:32:10;101053.03;;;19.29;44.21
73628;BME280;61923;51.846;5.856;2023-04-07T02:34:35;101057.00;;;19.25;44.32
73628;BME280;61923;51.846;5.856;2023-04-07T02:37:01;101051.31;;;19.21;44.26
73628;BME280;61923;51.846;5.856;2023-04-07T02:39:26;101058.66;;;19.26;44.13
73628;BME280;61923;51.846;5.856;2023-04-07T02:41:51;101061.13;;;19.27;44.41
73628;BME280;61923;51.846;5.856;2023-04-07T02:44:16;101057.84;;;19.25;44.20
73628;BME280;61923;51.846;5.856;2023-04-07T02:46:41;101062.47;;;19.23;44.05
73628;BME280;61923;51.846;5.856;2023-04-07T02:49:07;101059.84;;;19.23;43.98
73628;BME280;61923;51.846;5.856;2023-04-07T02:51:32;101063.47;;;19.22;44.31
73628;BME280;61923;51.846;5.856;2023-04-07T02:53:57;101070.38;;;19.23;44.26
73628;BME280;61923;51.846;5.856;2023-04-07T02:56:22;101068.00;;;19.28;44.20
73628;BME280;61923;51.846;5.856;2023-04-07T02:58:48;101068.38;;;19.25;44.10
73628;BME280;61923;51.846;5.856;2023-04-07T03:01:13;101075.44;;;19.25;44.08
73628;BME280;61923;51.846;5.856;2023-04-07T03:03:38;101073.00;;;19.23;44.11
73628;BME280;61923;51.846;5.856;2023-04-07T03:06:04;101069.09;;;19.19;44.14
73628;BME280;61923;51.846;5.856;2023-04-07T03:08:29;101072.38;;;19.21;44.24
73628;BME280;61923;51.846;5.856;2023-04-07T03:10:54;101080.06;;;19.23;44.13
73628;BME280;61923;51.846;5.856;2023-04-07T03:13:20;101084.06;;;19.19;44.04
73628;BME280;61923;51.846;5.856;2023-04-07T03:15:45;101073.53;;;19.19;44.04
73628;BME280;61923;51.846;5.856;2023-04-07T03:18:11;101070.72;;;19.20;44.06
73628;BME280;61923;51.846;5.856;2023-04-07T03:20:36;101080.91;;;19.23;44.23
73628;BME280;61923;51.846;5.856;2023-04-07T03:23:02;101074.53;;;19.18;44.13
73628;BME280;61923;51.846;5.856;2023-04-07T03:25:27;101070.44;;;19.15;44.21
73628;BME280;61923;51.846;5.856;2023-04-07T03:27:52;101069.75;;;19.21;44.24
73628;BME280;61923;51.846;5.856;2023-04-07T03:30:18;101068.91;;;19.21;44.07
73628;BME280;61923;51.846;5.856;2023-04-07T03:32:43;101070.38;;;19.23;43.99
73628;BME280;61923;51.846;5.856;2023-04-07T03:35:08;101065.44;;;19.20;44.07
73628;BME280;61923;51.846;5.856;2023-04-07T03:37:34;101066.63;;;19.18;44.08
73628;BME280;61923;51.846;5.856;2023-04-07T03:39:59;101063.19;;;19.17;43.96
73628;BME280;61923;51.846;5.856;2023-04-07T03:42:25;101068.25;;;19.19;44.25
73628;BME280;61923;51.846;5.856;2023-04-07T03:44:50;101063.63;;;19.21;44.33
73628;BME280;61923;51.846;5.856;2023-04-07T03:47:16;101057.84;;;19.25;43.75
73628;BME280;61923;51.846;5.856;2023-04-07T03:49:41;101059.00;;;19.23;44.07
73628;BME280;61923;51.846;5.856;2023-04-07T03:52:06;101065.94;;;19.24;43.98
73628;BME280;61923;51.846;5.856;2023-04-07T03:54:32;101067.28;;;19.20;44.18
73628;BME280;61923;51.846;5.856;2023-04-07T03:56:59;101073.34;;;19.20;43.92
73628;BME280;61923;51.846;5.856;2023-04-07T03:59:26;101066.16;;;19.14;44.02
73628;BME280;61923;51.846;5.856;2023-04-07T04:01:51;101073.91;;;19.16;44.42
73628;BME280;61923;51.846;5.856;2023-04-07T04:04:17;101072.72;;;19.18;44.00
73628;BME280;61923;51.846;5.856;2023-04-07T04:06:42;101074.16;;;19.21;44.05
73628;BME280;61923;51.846;5.856;2023-04-07T04:09:07;101080.59;;;19.18;43.91
73628;BME280;61923;51.846;5.856;2023-04-07T04:11:32;101080.28;;;19.21;43.97
73628;BME280;61923;51.846;5.856;2023-04-07T04:13:58;101075.00;;;19.21;43.89
73628;BME280;61923;51.846;5.856;2023-04-07T04:16:23;101086.50;;;19.20;43.98
73628;BME280;61923;51.846;5.856;2023-04-07T04:18:48;101087.16;;;19.22;44.14
73628;BME280;61923;51.846;5.856;2023-04-07T04:21:13;101085.25;;;19.16;44.41
73628;BME280;61923;51.846;5.856;2023-04-07T04:23:38;101091.78;;;19.20;44.26
73628;BME280;61923;51.846;5.856;2023-04-07T04:26:04;101089.78;;;19.22;43.95
73628;BME280;61923;51.846;5.856;2023-04-07T04:28:29;101092.41;;;19.22;44.18
73628;BME280;61923;51.846;5.856;2023-04-07T04:30:55;101092.16;;;19.17;43.88
73628;BME280;61923;51.846;5.856;2023-04-07T04:33:20;101091.94;;;19.19;44.25
73628;BME280;61923;51.846;5.856;2023-04-07T04:35:45;101094.59;;;19.19;44.07
73628;BME280;61923;51.846;5.856;2023-04-07T04:38:11;101104.13;;;19.20;43.86
73628;BME280;61923;51.846;5.856;2023-04-07T04:40:36;101104.94;;;19.20;44.41
73628;BME280;61923;51.846;5.856;2023-04-07T04:43:01;101104.31;;;19.18;44.21
73628;BME280;61923;51.846;5.856;2023-04-07T04:45:31;101103.50;;;19.18;43.92
73628;BME280;61923;51.846;5.856;2023-04-07T04:47:56;101105.59;;;19.22;44.19
73628;BME280;61923;51.846;5.856;2023-04-07T04:50:21;101111.88;;;19.21;44.22
73628;BME280;61923;51.846;5.856;2023-04-07T04:52:46;101097.84;;;19.21;44.22
73628;BME280;61923;51.846;5.856;2023-04-07T04:55:12;101109.41;;;19.20;44.20
73628;BME280;61923;51.846;5.856;2023-04-07T04:57:37;101106.78;;;19.20;44.11
73628;BME280;61923;51.846;5.856;2023-04-07T05:00:02;101114.84;;;19.18;44.30
73628;BME280;61923;51.846;5.856;2023-04-07T05:02:28;101117.47;;;19.18;44.09
73628;BME280;61923;51.846;5.856;2023-04-07T05:04:53;101116.66;;;19.18;44.03
73628;BME280;61923;51.846;5.856;2023-04-07T05:07:18;101115.47;;;19.20;44.16
73628;BME280;61923;51.846;5.856;2023-04-07T05:09:44;101123.03;;;19.23;43.70
73628;BME280;61923;51.846;5.856;2023-04-07T05:12:09;101129.13;;;19.24;43.86
73628;BME280;61923;51.846;5.856;2023-04-07T05:14:35;101120.75;;;19.20;43.93
73628;BME280;61923;51.846;5.856;2023-04-07T05:17:00;101123.03;;;19.23;44.12
73628;BME280;61923;51.846;5.856;2023-04-07T05:19:26;101127.81;;;19.20;44.26
73628;BME280;61923;51.846;5.856;2023-04-07T05:21:53;101124.19;;;19.21;43.82
73628;BME280;61923;51.846;5.856;2023-04-07T05:24:18;101127.19;;;19.18;44.26
73628;BME280;61923;51.846;5.856;2023-04-07T05:26:44;101125.03;;;19.21;44.16
73628;BME280;61923;51.846;5.856;2023-04-07T05:29:09;101129.91;;;19.24;44.07
73628;BME280;61923;51.846;5.856;2023-04-07T05:31:34;101124.31;;;19.27;43.88
73628;BME280;61923;51.846;5.856;2023-04-07T05:34:01;101126.31;;;19.25;43.85
73628;BME280;61923;51.846;5.856;2023-04-07T05:36:26;101130.28;;;19.21;44.14
73628;BME280;61923;51.846;5.856;2023-04-07T05:38:51;101128.63;;;19.20;43.98
73628;BME280;61923;51.846;5.856;2023-04-07T05:41:16;101127.03;;;19.19;44.30
73628;BME280;61923;51.846;5.856;2023-04-07T05:43:42;101128.81;;;19.19;44.28
73628;BME280;61923;51.846;5.856;2023-04-07T05:46:07;101132.94;;;19.21;44.06
73628;BME280;61923;51.846;5.856;2023-04-07T05:48:32;101135.09;;;19.18;44.26
73628;BME280;61923;51.846;5.856;2023-04-07T05:50:57;101135.91;;;19.18;44.02
73628;BME280;61923;51.846;5.856;2023-04-07T05:53:23;101139.97;;;19.21;44.15
73628;BME280;61923;51.846;5.856;2023-04-07T05:55:48;101141.16;;;19.18;44.07
73628;BME280;61923;51.846;5.856;2023-04-07T05:58:13;101144.09;;;19.23;44.15
73628;BME280;61923;51.846;5.856;2023-04-07T06:00:39;101140.53;;;19.16;44.14
73628;BME280;61923;51.846;5.856;2023-04-07T06:03:05;101138.84;;;19.23;44.06
73628;BME280;61923;51.846;5.856;2023-04-07T06:05:30;101150.88;;;19.18;44.10
73628;BME280;61923;51.846;5.856;2023-04-07T06:07:55;101154.50;;;19.17;44.08
73628;BME280;61923;51.846;5.856;2023-04-07T06:10:21;101159.59;;;19.18;44.04
73628;BME280;61923;51.846;5.856;2023-04-07T06:12:46;101160.59;;;19.17;44.32
73628;BME280;61923;51.846;5.856;2023-04-07T06:15:11;101164.22;;;19.16;43.95
73628;BME280;61923;51.846;5.856;2023-04-07T06:17:36;101160.59;;;19.17;44.12
73628;BME280;61923;51.846;5.856;2023-04-07T06:20:02;101157.31;;;19.15;44.30
73628;BME280;61923;51.846;5.856;2023-04-07T06:22:27;101163.03;;;19.19;44.17
73628;BME280;61923;51.846;5.856;2023-04-07T06:24:52;101166.19;;;19.14;44.33
73628;BME280;61923;51.846;5.856;2023-04-07T06:27:17;101163.56;;;19.14;44.42
73628;BME280;61923;51.846;5.856;2023-04-07T06:29:43;101161.19;;;19.27;43.81
73628;BME280;61923;51.846;5.856;2023-04-07T06:32:08;101173.06;;;19.23;44.14
73628;BME280;61923;51.846;5.856;2023-04-07T06:34:33;101172.41;;;19.21;44.22
73628;BME280;61923;51.846;5.856;2023-04-07T06:36:59;101177.03;;;19.19;44.36
73628;BME280;61923;51.846;5.856;2023-04-07T06:39:25;101172.75;;;19.18;44.18
73628;BME280;61923;51.846;5.856;2023-04-07T06:41:51;101167.84;;;19.15;44.48
73628;BME280;61923;51.846;5.856;2023-04-07T06:44:16;101174.03;;;19.22;44.16
73628;BME280;61923;51.846;5.856;2023-04-07T06:46:41;101180.66;;;19.18;44.46
73628;BME280;61923;51.846;5.856;2023-04-07T06:49:08;101177.38;;;19.16;44.46
73628;BME280;61923;51.846;5.856;2023-04-07T06:51:33;101177.84;;;19.20;44.56
73628;BME280;61923;51.846;5.856;2023-04-07T06:53:58;101182.94;;;19.21;44.37
73628;BME280;61923;51.846;5.856;2023-04-07T06:56:25;101191.19;;;19.18;44.64
73628;BME280;61923;51.846;5.856;2023-04-07T06:58:51;101197.78;;;19.14;44.87
73628;BME280;61923;51.846;5.856;2023-04-07T07:01:16;101194.47;;;19.20;44.68
73628;BME280;61923;51.846;5.856;2023-04-07T07:03:41;101198.03;;;19.27;44.50
73628;BME280;61923;51.846;5.856;2023-04-07T07:06:06;101201.81;;;19.25;45.13
73628;BME280;61923;51.846;5.856;2023-04-07T07:08:32;101208.25;;;19.22;45.52
73628;BME280;61923;51.846;5.856;2023-04-07T07:10:57;101215.69;;;19.19;45.48
73628;BME280;61923;51.846;5.856;2023-04-07T07:13:24;101207.28;;;19.23;45.17
73628;BME280;61923;51.846;5.856;2023-04-07T07:15:50;101219.59;;;19.23;45.21
73628;BME280;61923;51.846;5.856;2023-04-07T07:18:16;101216.09;;;19.30;45.25
73628;BME280;61923;51.846;5.856;2023-04-07T07:20:42;101204.88;;;19.37;44.93
73628;BME280;61923;51.846;5.856;2023-04-07T07:23:07;101210.78;;;19.39;45.19
73628;BME280;61923;51.846;5.856;2023-04-07T07:25:33;101208.34;;;19.37;45.08
73628;BME280;61923;51.846;5.856;2023-04-07T07:27:58;101213.78;;;19.36;44.88
73628;BME280;61923;51.846;5.856;2023-04-07T07:30:23;101210.13;;;19.37;45.24
73628;BME280;61923;51.846;5.856;2023-04-07T07:32:49;101215.78;;;19.34;45.19
73628;BME280;61923;51.846;5.856;2023-04-07T07:35:14;101214.44;;;19.38;45.01
73628;BME280;61923;51.846;5.856;2023-04-07T07:37:40;101220.69;;;19.37;44.97
73628;BME280;61923;51.846;5.856;2023-04-07T07:40:06;101227.75;;;19.36;45.48
73628;BME280;61923;51.846;5.856;2023-04-07T07:42:31;101225.28;;;19.35;45.42
73628;BME280;61923;51.846;5.856;2023-04-07T07:44:57;101214.97;;;19.33;45.32
73628;BME280;61923;51.846;5.856;2023-04-07T07:47:22;101234.03;;;19.35;45.20
73628;BME280;61923;51.846;5.856;2023-04-07T07:49:47;101223.84;;;19.32;45.41
73628;BME280;61923;51.846;5.856;2023-04-07T07:52:13;101232.22;;;19.36;45.41
73628;BME280;61923;51.846;5.856;2023-04-07T07:54:38;101241.75;;;19.37;45.46
73628;BME280;61923;51.846;5.856;2023-04-07T07:57:03;101234.53;;;19.30;45.25
73628;BME280;61923;51.846;5.856;2023-04-07T07:59:30;101238.81;;;19.32;45.18
73628;BME280;61923;51.846;5.856;2023-04-07T08:01:55;101242.50;;;19.22;45.44
73628;BME280;61923;51.846;5.856;2023-04-07T08:04:21;101251.72;;;19.18;45.04
73628;BME280;61923;51.846;5.856;2023-04-07T08:06:47;101246.00;;;19.15;45.48
73628;BME280;61923;51.846;5.856;2023-04-07T08:09:12;101254.38;;;19.18;45.45
73628;BME280;61923;51.846;5.856;2023-04-07T08:11:38;101254.38;;;19.18;45.29
73628;BME280;61923;51.846;5.856;2023-04-07T08:14:03;101248.63;;;19.15;45.57
73628;BME280;61923;51.846;5.856;2023-04-07T08:16:28;101260.00;;;19.15;45.41
73628;BME280;61923;51.846;5.856;2023-04-07T08:18:53;101260.00;;;19.15;45.39
73628;BME280;61923;51.846;5.856;2023-04-07T08:21:19;101263.44;;;19.16;45.41
73628;BME280;61923;51.846;5.856;2023-04-07T08:23:45;101264.78;;;19.12;45.43
73628;BME280;61923;51.846;5.856;2023-04-07T08:26:10;101263.94;;;19.11;45.49
73628;BME280;61923;51.846;5.856;2023-04-07T08:28:35;101271.50;;;19.14;45.37
73628;BME280;61923;51.846;5.856;2023-04-07T08:31:00;101274.31;;;19.13;45.34
73628;BME280;61923;51.846;5.856;2023-04-07T08:33:26;101274.31;;;19.13;45.52
73628;BME280;61923;51.846;5.856;2023-04-07T08:35:51;101268.22;;;19.12;45.35
73628;BME280;61923;51.846;5.856;2023-04-07T08:38:16;101275.97;;;19.14;45.40
73628;BME280;61923;51.846;5.856;2023-04-07T08:40:41;101284.03;;;19.12;45.47
73628;BME280;61923;51.846;5.856;2023-04-07T08:43:07;101282.38;;;19.11;45.43
73628;BME280;61923;51.846;5.856;2023-04-07T08:45:36;101282.38;;;19.11;45.71
73628;BME280;61923;51.846;5.856;2023-04-07T08:48:03;101288.09;;;19.15;45.37
73628;BME280;61923;51.846;5.856;2023-04-07T08:50:35;101295.53;;;19.11;45.35
73628;BME280;61923;51.846;5.856;2023-04-07T08:53:00;101300.78;;;19.11;45.52
73628;BME280;61923;51.846;5.856;2023-04-07T08:55:29;101297.19;;;19.12;45.61
73628;BME280;61923;51.846;5.856;2023-04-07T08:57:55;101297.50;;;19.09;45.64
73628;BME280;61923;51.846;5.856;2023-04-07T09:00:21;101299.81;;;19.12;45.56
73628;BME280;61923;51.846;5.856;2023-04-07T09:02:46;101299.16;;;19.10;45.54
73628;BME280;61923;51.846;5.856;2023-04-07T09:05:13;101301.78;;;19.10;45.38
73628;BME280;61923;51.846;5.856;2023-04-07T09:07:38;101300.97;;;19.09;45.63
73628;BME280;61923;51.846;5.856;2023-04-07T09:10:10;101308.88;;;19.09;45.45
73628;BME280;61923;51.846;5.856;2023-04-07T09:12:35;101299.31;;;19.08;45.52
73628;BME280;61923;51.846;5.856;2023-04-07T09:15:01;101303.41;;;19.11;45.38
73628;BME280;61923;51.846;5.856;2023-04-07T09:17:28;101303.41;;;19.11;45.53
73628;BME280;61923;51.846;5.856;2023-04-07T09:20:00;101303.63;;;19.09;45.17
73628;BME280;61923;51.846;5.856;2023-04-07T09:22:38;101308.69;;;19.11;45.16
73628;BME280;61923;51.846;5.856;2023-04-07T09:25:23;101316.59;;;19.11;45.54
73628;BME280;61923;51.846;5.856;2023-04-07T09:28:01;101308.88;;;19.09;45.46
73628;BME280;61923;51.846;5.856;2023-04-07T09:30:28;101312.31;;;19.10;45.23
73628;BME280;61923;51.846;5.856;2023-04-07T09:32:55;101312.31;;;19.10;45.36
73628;BME280;61923;51.846;5.856;2023-04-07T09:35:21;101325.66;;;19.08;45.47
73628;BME280;61923;51.846;5.856;2023-04-07T09:38:01;101317.91;;;19.07;45.26
73628;BME280;61923;51.846;5.856;2023-04-07T09:40:27;101315.78;;;19.10;45.47
73628;BME280;61923;51.846;5.856;2023-04-07T09:42:53;101319.41;;;19.09;45.35
73628;BME280;61923;51.846;5.856;2023-04-07T09:45:28;101314.16;;;19.09;45.28
73628;BME280;61923;51.846;5.856;2023-04-07T09:47:54;101319.56;;;19.08;45.37
73628;BME280;61923;51.846;5.856;2023-04-07T09:50:32;101319.56;;;19.08;45.36
73628;BME280;61923;51.846;5.856;2023-04-07T09:53:01;101322.38;;;19.06;45.35
73628;BME280;61923;51.846;5.856;2023-04-07T09:55:27;101326.81;;;19.06;45.50
73628;BME280;61923;51.846;5.856;2023-04-07T09:57:53;101325.00;;;19.06;45.18
73628;BME280;61923;51.846;5.856;2023-04-07T10:00:22;101332.91;;;19.06;45.57
73628;BME280;61923;51.846;5.856;2023-04-07T10:02:47;101333.06;;;19.05;45.32
73628;BME280;61923;51.846;5.856;2023-04-07T10:05:14;101329.78;;;19.03;45.23
73628;BME280;61923;51.846;5.856;2023-04-07T10:07:40;101331.28;;;19.05;45.38
73628;BME280;61923;51.846;5.856;2023-04-07T10:10:06;101325.53;;;19.02;45.49
73628;BME280;61923;51.846;5.856;2023-04-07T10:12:34;101326.81;;;19.06;45.41
73628;BME280;61923;51.846;5.856;2023-04-07T10:15:01;101327.16;;;19.03;45.15
73628;BME280;61923;51.846;5.856;2023-04-07T10:17:27;101335.88;;;19.03;45.05
73628;BME280;61923;51.846;5.856;2023-04-07T10:19:52;101332.41;;;19.03;45.19
73628;BME280;61923;51.846;5.856;2023-04-07T10:22:18;101335.03;;;19.03;45.19
73628;BME280;61923;51.846;5.856;2023-04-07T10:24:59;101331.75;;;19.01;45.34
73628;BME280;61923;51.846;5.856;2023-04-07T10:27:30;101336.69;;;19.04;45.34
73628;BME280;61923;51.846;5.856;2023-04-07T10:29:57;101343.78;;;19.03;45.13
73628;BME280;61923;51.846;5.856;2023-04-07T10:32:23;101338.31;;;19.05;45.25
73628;BME280;61923;51.846;5.856;2023-04-07T10:34:54;101340.16;;;19.04;45.23
73628;BME280;61923;51.846;5.856;2023-04-07T10:37:21;101345.56;;;19.03;45.35
73628;BME280;61923;51.846;5.856;2023-04-07T10:39:47;101344.75;;;19.02;45.24
73628;BME280;61923;51.846;5.856;2023-04-07T10:45:04;101349.69;;;19.05;45.23
73628;BME280;61923;51.846;5.856;2023-04-07T10:47:29;101344.44;;;19.05;45.10
73628;BME280;61923;51.846;5.856;2023-04-07T10:50:14;101345.41;;;19.04;45.24
73628;BME280;61923;51.846;5.856;2023-04-07T10:52:41;101348.19;;;19.11;45.16
73628;BME280;61923;51.846;5.856;2023-04-07T10:58:16;101359.50;;;19.20;45.11
73628;BME280;61923;51.846;5.856;2023-04-07T11:00:43;101364.97;;;19.10;44.90
73628;BME280;61923;51.846;5.856;2023-04-07T11:03:29;101367.78;;;19.08;44.91
73628;BME280;61923;51.846;5.856;2023-04-07T11:08:37;101373.03;;;19.08;45.21
73628;BME280;61923;51.846;5.856;2023-04-07T11:11:04;101366.97;;;19.08;44.88
73628;BME280;61923;51.846;5.856;2023-04-07T11:16:11;101366.59;;;19.11;45.21
73628;BME280;61923;51.846;5.856;2023-04-07T11:18:37;101365.94;;;19.09;44.91
73628;BME280;61923;51.846;5.856;2023-04-07T11:21:04;101374.50;;;19.11;45.07
73628;BME280;61923;51.846;5.856;2023-04-07T11:23:51;101372.88;;;19.10;45.21
73628;BME280;61923;51.846;5.856;2023-04-07T11:26:16;101375.50;;;19.10;44.91
73628;BME280;61923;51.846;5.856;2023-04-07T11:28:44;101373.84;;;19.09;45.16
73628;BME280;61923;51.846;5.856;2023-04-07T11:31:11;101373.69;;;19.10;45.19
73628;BME280;61923;51.846;5.856;2023-04-07T11:33:36;101375.84;;;19.07;45.13
73628;BME280;61923;51.846;5.856;2023-04-07T11:36:05;101380.13;;;19.08;45.08
73628;BME280;61923;51.846;5.856;2023-04-07T11:38:35;101371.41;;;19.07;45.06
73628;BME280;61923;51.846;5.856;2023-04-07T11:41:09;101385.22;;;19.09;44.82
73628;BME280;61923;51.846;5.856;2023-04-07T11:43:35;101380.94;;;19.08;44.82
73628;BME280;61923;51.846;5.856;2023-04-07T11:46:05;101387.19;;;19.07;44.89
73628;BME280;61923;51.846;5.856;2023-04-07T11:48:32;101392.28;;;19.09;45.12
73628;BME280;61923;51.846;5.856;2023-04-07T11:50:57;101387.84;;;19.09;44.95
73628;BME280;61923;51.846;5.856;2023-04-07T11:53:27;101393.13;;;19.09;44.96
73628;BME280;61923;51.846;5.856;2023-04-07T11:56:06;101393.78;;;19.12;44.86
73628;BME280;61923;51.846;5.856;2023-04-07T11:58:34;101394.25;;;19.07;44.97
73628;BME280;61923;51.846;5.856;2023-04-07T12:01:00;101403.81;;;19.08;45.03
73628;BME280;61923;51.846;5.856;2023-04-07T12:03:32;101403.81;;;19.08;44.89
73628;BME280;61923;51.846;5.856;2023-04-07T12:05:58;101398.53;;;19.08;45.07
73628;BME280;61923;51.846;5.856;2023-04-07T12:08:39;101411.53;;;19.09;44.86
73628;BME280;61923;51.846;5.856;2023-04-07T12:11:05;101415.16;;;19.08;44.80
73628;BME280;61923;51.846;5.856;2023-04-07T12:13:32;101415.16;;;19.08;44.74
73628;BME280;61923;51.846;5.856;2023-04-07T12:16:00;101416.97;;;19.08;44.92
73628;BME280;61923;51.846;5.856;2023-04-07T12:18:26;101414.50;;;19.06;44.79
73628;BME280;61923;51.846;5.856;2023-04-07T12:20:52;101417.28;;;19.05;44.87
73628;BME280;61923;51.846;5.856;2023-04-07T12:23:17;101418.13;;;19.05;44.81
73628;BME280;61923;51.846;5.856;2023-04-07T12:25:42;101419.75;;;19.06;45.01
73628;BME280;61923;51.846;5.856;2023-04-07T12:28:08;101418.94;;;19.06;44.97
73628;BME280;61923;51.846;5.856;2023-04-07T12:30:33;101426.69;;;19.07;44.77
73628;BME280;61923;51.846;5.856;2023-04-07T12:32:58;101423.53;;;19.12;44.62
73628;BME280;61923;51.846;5.856;2023-04-07T12:35:24;101427.16;;;19.19;44.33
73628;BME280;61923;51.846;5.856;2023-04-07T12:37:49;101436.03;;;19.18;44.31
73628;BME280;61923;51.846;5.856;2023-04-07T12:40:17;101424.34;;;19.21;44.40
73628;BME280;61923;51.846;5.856;2023-04-07T12:42:42;101432.22;;;19.21;44.23
73628;BME280;61923;51.846;5.856;2023-04-07T12:45:07;101445.22;;;19.22;44.39
73628;BME280;61923;51.846;5.856;2023-04-07T12:47:33;101438.34;;;19.21;44.26
73628;BME280;61923;51.846;5.856;2023-04-07T12:49:58;101438.34;;;19.21;44.49
73628;BME280;61923;51.846;5.856;2023-04-07T12:52:23;101435.72;;;19.21;44.26
73628;BME280;61923;51.846;5.856;2023-04-07T12:54:49;101445.22;;;19.22;44.25
73628;BME280;61923;51.846;5.856;2023-04-07T12:57:14;101438.50;;;19.20;44.72
